createdAt,value
2018-09-12T13:01:46.185Z,1540
2018-09-12T13:02:06.516Z,1536
2018-09-12T13:02:26.686Z,1536
2018-09-12T13:02:46.866Z,1532
2018-09-12T13:03:07.014Z,1532
2018-09-12T13:03:27.158Z,1536
2018-09-12T13:03:47.321Z,1532
2018-09-12T13:04:07.469Z,1536
2018-09-12T13:04:27.665Z,1536
2018-09-12T13:04:47.828Z,1536
2018-09-12T13:05:07.982Z,1528
2018-09-12T13:05:28.189Z,1532
2018-09-12T13:05:48.330Z,1532
2018-09-12T13:06:08.492Z,1532
2018-09-12T13:06:29.025Z,1528
2018-09-12T13:06:49.242Z,1532
2018-09-12T13:07:09.444Z,1532
2018-09-12T13:07:29.627Z,1532
2018-09-12T13:07:49.857Z,1528
2018-09-12T13:08:10.686Z,1532
2018-09-12T13:08:31.093Z,1528
2018-09-12T13:08:51.246Z,1536
2018-09-12T13:09:11.399Z,1532
2018-09-12T13:09:31.586Z,1532
2018-09-12T13:09:51.744Z,1528
2018-09-12T13:10:11.910Z,1532
2018-09-12T13:10:32.155Z,1532
2018-09-12T13:10:52.572Z,1528
2018-09-12T13:11:12.796Z,1532
2018-09-12T13:11:32.971Z,1532
2018-09-12T13:11:53.115Z,1528
2018-09-12T13:12:13.280Z,1532
2018-09-12T13:12:33.424Z,1536
2018-09-12T13:12:54.140Z,1532
2018-09-12T13:13:15.200Z,1536
2018-09-12T13:13:35.867Z,1536
2018-09-12T13:13:56.990Z,1536
2018-09-12T13:14:17.804Z,1536
2018-09-12T13:14:38.493Z,1536
2018-09-12T13:14:58.779Z,1528
2018-09-12T13:15:19.077Z,1536
2018-09-12T13:15:39.312Z,1540
2018-09-12T13:15:59.532Z,1536
2018-09-12T13:16:19.737Z,1540
2018-09-12T13:16:40.252Z,1536
2018-09-12T13:17:00.894Z,1544
2018-09-12T13:17:21.214Z,1552
2018-09-12T13:17:41.402Z,1540
2018-09-12T13:18:01.661Z,1536
2018-09-12T13:18:21.899Z,1532
2018-09-12T13:18:42.186Z,1540
2018-09-12T13:19:02.450Z,1540
2018-09-12T13:21:50.230Z,1540
2018-09-12T13:22:10.144Z,1544
2018-09-12T13:22:30.530Z,1540
2018-09-12T13:22:50.867Z,1540
2018-09-12T13:23:11.069Z,1540
2018-09-12T13:23:31.241Z,1544
2018-09-12T13:23:51.420Z,1544
2018-09-12T13:24:11.588Z,1544
2018-09-12T13:24:31.734Z,1544
2018-09-12T13:24:51.936Z,1544
2018-09-12T13:25:12.115Z,1548
2018-09-12T13:25:32.308Z,1544
2018-09-12T13:25:52.469Z,1548
2018-09-12T13:26:12.638Z,1548
2018-09-12T13:26:33.146Z,1548
2018-09-12T13:26:53.649Z,1544
2018-09-12T13:27:13.936Z,1544
2018-09-12T13:27:34.150Z,1544
2018-09-12T13:27:54.339Z,1548
2018-09-12T13:28:14.543Z,1548
2018-09-12T13:28:34.773Z,1548
2018-09-12T13:28:54.957Z,1548
2018-09-12T13:29:15.146Z,1552
2018-09-12T13:29:35.324Z,1548
2018-09-12T13:29:55.514Z,1548
2018-09-12T13:30:15.850Z,1552
2018-09-12T13:30:36.068Z,1544
2018-09-12T13:30:56.295Z,1552
2018-09-12T13:31:16.492Z,1548
2018-09-12T13:31:36.689Z,1552
2018-09-12T13:31:57.085Z,1556
2018-09-12T13:32:17.228Z,1556
2018-09-12T13:32:37.423Z,1552
2018-09-12T13:32:57.616Z,1556
2018-09-12T13:33:17.783Z,1552
2018-09-12T13:33:38.509Z,1552
2018-09-12T13:33:58.785Z,1548
2018-09-12T13:34:19.012Z,1548
2018-09-12T13:34:39.282Z,1548
2018-09-12T13:34:59.373Z,1584
2018-09-12T13:35:19.518Z,1552
2018-09-12T13:35:39.700Z,1548
2018-09-12T13:35:59.870Z,1552
2018-09-12T13:36:20.029Z,1556
2018-09-12T13:36:40.271Z,1568
2018-09-12T13:37:00.427Z,1548
2018-09-12T13:37:20.622Z,1552
2018-09-12T13:37:40.849Z,1564
2018-09-12T13:38:01.004Z,1548
2018-09-12T13:38:21.168Z,1552
2018-09-12T13:38:41.371Z,1556
2018-09-12T13:39:01.518Z,1548
2018-09-12T13:39:21.665Z,1544
2018-09-12T13:39:41.842Z,1548
2018-09-12T13:40:02.860Z,1544
2018-09-12T13:40:23.016Z,1548
2018-09-12T13:40:43.150Z,1548
2018-09-12T13:41:03.317Z,1556
2018-09-12T13:41:23.471Z,1556
2018-09-12T13:41:43.671Z,1556
2018-09-12T13:42:03.829Z,1556
2018-09-12T13:42:23.982Z,1556
2018-09-12T13:42:44.156Z,1560
2018-09-12T13:43:04.317Z,1560
2018-09-12T13:43:24.484Z,1564
2018-09-12T13:43:44.638Z,1560
2018-09-12T13:44:04.778Z,1564
2018-09-12T13:44:25.012Z,1564
2018-09-12T13:44:45.149Z,1560
2018-09-12T13:45:05.292Z,1564
2018-09-12T13:45:25.459Z,1560
2018-09-12T13:45:45.640Z,1564
2018-09-12T13:46:05.807Z,1564
2018-09-12T13:46:25.983Z,1568
2018-09-12T13:46:46.139Z,1564
2018-09-12T13:47:06.303Z,1568
2018-09-12T13:47:26.478Z,1568
2018-09-12T13:47:46.668Z,1572
2018-09-12T13:48:06.829Z,1576
2018-09-12T13:48:26.983Z,1572
2018-09-12T13:48:47.146Z,1576
2018-09-12T13:49:07.301Z,1580
2018-09-12T13:49:27.484Z,1588
2018-09-12T13:49:47.683Z,1588
2018-09-12T13:50:07.852Z,1592
2018-09-12T13:50:28.138Z,1600
2018-09-12T13:50:48.310Z,1592
2018-09-12T13:51:08.472Z,1596
2018-09-12T13:51:28.632Z,1592
2018-09-12T13:51:48.796Z,1596
2018-09-12T13:52:08.965Z,1604
2018-09-12T13:52:29.141Z,1612
2018-09-12T13:52:49.297Z,1608
2018-09-12T13:53:09.461Z,1604
2018-09-12T13:53:29.609Z,1604
2018-09-12T13:53:49.790Z,1600
2018-09-12T13:54:09.930Z,1604
2018-09-12T13:54:30.121Z,1604
2018-09-12T13:54:50.298Z,1612
2018-09-12T13:55:10.459Z,1604
2018-09-12T13:55:30.637Z,1612
2018-09-12T13:55:50.790Z,1616
2018-09-12T13:56:11.010Z,1620
2018-09-12T13:56:31.200Z,1616
2018-09-12T13:56:51.468Z,1632
2018-09-12T13:57:11.623Z,1616
2018-09-12T13:57:31.778Z,1628
2018-09-12T13:57:51.955Z,1632
2018-09-12T13:58:12.142Z,1628
2018-09-12T13:58:32.341Z,1628
2018-09-12T13:58:52.530Z,1628
2018-09-12T13:59:12.714Z,1632
2018-09-12T13:59:32.966Z,1620
2018-09-12T13:59:53.097Z,1636
2018-09-12T14:00:13.314Z,1644
2018-09-12T14:00:33.505Z,1636
2018-09-12T14:00:53.896Z,1640
2018-09-12T14:01:14.064Z,1644
2018-09-12T14:01:34.227Z,1644
2018-09-12T14:01:56.594Z,1644
2018-09-12T14:02:16.781Z,1648
2018-09-12T14:02:36.985Z,1652
2018-09-12T14:02:57.138Z,1648
2018-09-12T14:03:17.399Z,1648
2018-09-12T14:03:37.496Z,1648
2018-09-12T14:03:57.634Z,1640
2018-09-12T14:04:17.811Z,1644
2018-09-12T14:04:37.994Z,1644
2018-09-12T14:04:58.133Z,1644
2018-09-12T14:05:18.322Z,1636
2018-09-12T14:05:38.519Z,1636
2018-09-12T14:05:58.710Z,1636
2018-09-12T14:06:18.924Z,1636
2018-09-12T14:06:39.089Z,1628
2018-09-12T14:06:59.295Z,1632
2018-09-12T14:07:19.448Z,1628
2018-09-12T14:07:39.643Z,1624
2018-09-12T14:07:59.811Z,1636
2018-09-12T14:08:19.982Z,1636
2018-09-12T14:08:40.186Z,1652
2018-09-12T14:09:00.391Z,1632
2018-09-12T14:09:21.499Z,1628
2018-09-12T14:09:41.722Z,1616
2018-09-12T14:10:01.944Z,1620
2018-09-12T14:10:22.369Z,1624
2018-09-12T14:10:42.600Z,1624
2018-09-12T14:11:02.812Z,1624
2018-09-12T14:11:22.960Z,1620
2018-09-12T14:11:43.188Z,1620
2018-09-12T14:12:03.345Z,1620
2018-09-12T14:12:23.498Z,1620
2018-09-12T14:12:43.669Z,1620
2018-09-12T14:13:03.904Z,1612
2018-09-12T14:13:24.031Z,1620
2018-09-12T14:13:44.228Z,1620
2018-09-12T14:14:04.400Z,1624
2018-09-12T14:14:24.595Z,1620
2018-09-12T14:14:44.753Z,1624
2018-09-12T14:15:04.935Z,1624
2018-09-12T14:15:25.102Z,1620
2018-09-12T14:15:45.294Z,1620
2018-09-12T14:16:05.463Z,1624
2018-09-12T14:16:25.626Z,1620
2018-09-12T14:16:45.765Z,1616
2018-09-12T14:17:05.992Z,1620
2018-09-12T14:17:26.172Z,1620
2018-09-12T14:17:46.328Z,1624
2018-09-12T14:18:06.481Z,1620
2018-09-12T14:18:26.640Z,1620
2018-09-12T14:18:46.744Z,1620
2018-09-12T14:19:08.064Z,1620
2018-09-12T14:19:28.294Z,1620
2018-09-12T14:19:48.479Z,1624
2018-09-12T14:20:08.644Z,1624
2018-09-12T14:20:28.824Z,1624
2018-09-12T14:20:48.996Z,1620
2018-09-12T14:21:09.149Z,1624
2018-09-12T14:21:29.299Z,1628
2018-09-12T14:21:49.461Z,1620
2018-09-12T14:22:09.651Z,1624
2018-09-12T14:22:29.828Z,1624
2018-09-12T14:22:50.179Z,1628
2018-09-12T14:23:10.255Z,1624
2018-09-12T14:23:30.457Z,1616
2018-09-12T14:23:50.608Z,1632
2018-09-12T14:24:10.774Z,1628
2018-09-12T14:24:30.950Z,1628
2018-09-12T14:24:51.171Z,1632
2018-09-12T14:25:11.533Z,1632
2018-09-12T14:25:31.649Z,1632
2018-09-12T14:25:51.836Z,1636
2018-09-12T14:26:12.001Z,1632
2018-09-12T14:26:32.169Z,1632
2018-09-12T14:26:52.368Z,1640
2018-09-12T14:27:12.547Z,1640
2018-09-12T14:27:32.728Z,1640
2018-09-12T14:27:52.879Z,1636
2018-09-12T14:28:13.039Z,1636
2018-09-12T14:28:33.224Z,1640
2018-09-12T14:28:53.397Z,1636
2018-09-12T14:29:13.547Z,1632
2018-09-12T14:29:33.693Z,1636
2018-09-12T14:29:53.835Z,1632
2018-09-12T14:30:13.978Z,1632
2018-09-12T14:30:34.147Z,1632
2018-09-12T14:30:54.309Z,1636
2018-09-12T14:31:14.481Z,1632
2018-09-12T14:31:34.723Z,1632
2018-09-12T14:31:57.123Z,1628
2018-09-12T14:32:17.430Z,1632
2018-09-12T14:32:37.818Z,1628
2018-09-12T14:32:57.964Z,1632
2018-09-12T14:33:18.177Z,1624
2018-09-12T14:33:38.338Z,1632
2018-09-12T14:33:58.482Z,1636
2018-09-12T14:34:19.359Z,1632
2018-09-12T14:34:39.594Z,1632
2018-09-12T14:34:59.789Z,1636
2018-09-12T14:35:19.973Z,1628
2018-09-12T14:35:40.317Z,1652
2018-09-12T14:36:00.694Z,1640
2018-09-12T14:36:21.965Z,1636
2018-09-12T14:36:42.561Z,1636
2018-09-12T14:37:03.829Z,1628
2018-09-12T14:37:24.369Z,1632
2018-09-12T14:37:44.855Z,1624
2018-09-12T14:38:05.850Z,1628
2018-09-12T14:38:26.262Z,1636
2018-09-12T14:38:47.411Z,1628
2018-09-12T14:39:08.003Z,1636
2018-09-12T14:39:28.254Z,1640
2018-09-12T14:39:49.300Z,1640
2018-09-12T14:40:09.676Z,1640
2018-09-12T14:40:30.976Z,1648
2018-09-12T14:40:51.464Z,1656
2018-09-12T14:41:11.926Z,1660
2018-09-12T14:41:32.584Z,1660
2018-09-12T14:41:53.525Z,1672
2018-09-12T14:42:14.113Z,1672
2018-09-12T14:42:34.468Z,1672
2018-09-12T14:42:54.781Z,1680
2018-09-12T14:43:15.223Z,1676
2018-09-12T14:43:35.656Z,1680
2018-09-12T14:43:56.111Z,1676
2018-09-12T14:44:16.833Z,1676
2018-09-12T14:44:37.407Z,1700
2018-09-12T14:44:57.933Z,1704
2018-09-12T14:45:18.630Z,1708
2018-09-12T14:45:39.400Z,1716
2018-09-12T14:46:00.448Z,1716
2018-09-12T14:46:22.222Z,1720
2018-09-12T14:46:51.336Z,1728
2018-09-12T14:47:44.001Z,1740
2018-09-12T14:48:55.725Z,1744
2018-09-12T14:49:46.907Z,1744
2018-09-12T14:50:19.938Z,1736
2018-09-12T14:50:45.125Z,1752
2018-09-12T14:51:10.127Z,1748
2018-09-12T14:51:46.777Z,1756
2018-09-12T14:53:32.222Z,1772
2018-09-12T14:54:57.864Z,1788
2018-09-12T14:56:18.987Z,1812
2018-09-12T14:57:14.328Z,1828
2018-09-12T14:58:20.916Z,1844
2018-09-12T14:59:17.778Z,1868
2018-09-12T15:00:18.526Z,1892
2018-09-12T15:01:06.335Z,1912
2018-09-12T15:01:52.576Z,1928
2018-09-12T15:02:30.624Z,1944
2018-09-12T15:03:22.971Z,1972
2018-09-12T15:04:06.063Z,1992
2018-09-12T15:04:39.564Z,2016
2018-09-12T15:05:13.919Z,2028
2018-09-12T15:05:50.207Z,2060
2018-09-12T15:06:27.775Z,2068
2018-09-12T15:07:17.797Z,2104
2018-09-12T15:08:12.484Z,2132
2018-09-12T15:08:55.203Z,2160
2018-09-12T15:09:51.339Z,2192
2018-09-12T15:10:32.071Z,2212
2018-09-12T15:11:15.816Z,2244
2018-09-12T15:12:06.455Z,2260
2018-09-12T15:12:44.103Z,2272
2018-09-12T15:13:33.449Z,2296
2018-09-12T15:14:14.939Z,2304
2018-09-12T15:14:58.119Z,2308
2018-09-12T15:16:24.913Z,2336
2018-09-12T15:17:45.255Z,2328
2018-09-12T15:18:13.364Z,2336
2018-09-12T15:18:43.413Z,2332
2018-09-12T15:19:17.549Z,2324
2018-09-12T15:19:57.421Z,2308
2018-09-12T15:20:26.995Z,2316
2018-09-12T15:20:54.784Z,2320
2018-09-12T15:21:26.736Z,2320
2018-09-12T15:22:02.775Z,2332
2018-09-12T15:22:32.979Z,2336
2018-09-12T15:23:05.387Z,2356
2018-09-12T15:23:40.977Z,2340
2018-09-12T15:24:37.566Z,2320
2018-09-12T15:25:13.724Z,2312
2018-09-12T15:25:48.105Z,2268
2018-09-12T15:26:19.206Z,2252
2018-09-12T15:26:52.458Z,2224
2018-09-12T15:27:50.357Z,2080
2018-09-12T15:28:19.449Z,2052
2018-09-12T15:29:16.714Z,1932
2018-09-12T15:29:46.693Z,2064
2018-09-12T15:30:25.711Z,1936
2018-09-12T15:31:07.484Z,1956
2018-09-12T15:31:58.654Z,1776
2018-09-12T15:32:41.856Z,1780
2018-09-12T15:33:26.055Z,1444
2018-09-12T15:34:16.647Z,1360
2018-09-12T15:34:57.505Z,1196
2018-09-12T15:35:49.466Z,988
2018-09-12T15:36:17.479Z,976
2018-09-12T15:36:53.342Z,944
2018-09-12T15:37:25.043Z,940
2018-09-12T15:38:12.668Z,888
2018-09-12T15:38:55.722Z,864
2018-09-12T15:39:50.792Z,820
2018-09-12T15:40:32.404Z,872
2018-09-12T15:41:40.642Z,916
2018-09-12T15:42:01.012Z,928
2018-09-12T15:42:21.291Z,964
2018-09-12T15:42:41.511Z,1020
2018-09-12T15:43:01.875Z,916
2018-09-12T15:43:22.185Z,860
2018-09-12T15:43:42.608Z,828
2018-09-12T15:44:02.818Z,824
2018-09-12T15:44:23.001Z,804
2018-09-12T15:44:43.208Z,752
2018-09-12T15:45:03.353Z,788
2018-09-12T15:45:23.706Z,788
2018-09-12T15:45:44.074Z,776
2018-09-12T15:46:04.224Z,884
2018-09-12T15:46:24.437Z,840
2018-09-12T15:46:44.595Z,808
2018-09-12T15:47:04.766Z,932
2018-09-12T15:47:24.925Z,1144
2018-09-12T15:47:45.079Z,1036
2018-09-12T15:48:05.248Z,1112
2018-09-12T15:48:25.419Z,1132
2018-09-12T15:48:45.588Z,1160
2018-09-12T15:49:05.751Z,1192
2018-09-12T15:49:25.951Z,1088
2018-09-12T15:49:46.117Z,804
2018-09-12T15:50:06.290Z,788
2018-09-12T15:50:26.418Z,684
2018-09-12T15:50:46.580Z,736
2018-09-12T15:51:06.737Z,748
2018-09-12T15:51:26.904Z,660
2018-09-12T15:51:47.056Z,624
2018-09-12T15:52:07.226Z,632
2018-09-12T15:52:27.419Z,636
2018-09-12T15:52:47.559Z,568
2018-09-12T15:53:07.737Z,540
2018-09-12T15:53:27.873Z,580
2018-09-12T15:53:48.049Z,604
2018-09-12T15:54:08.203Z,596
2018-09-12T15:54:28.391Z,592
2018-09-12T15:54:48.549Z,640
2018-09-12T15:55:08.720Z,768
2018-09-12T15:55:28.853Z,772
2018-09-12T15:55:49.015Z,660
2018-09-12T15:56:09.175Z,760
2018-09-12T15:56:29.368Z,828
2018-09-12T15:56:49.519Z,792
2018-09-12T15:57:09.655Z,920
2018-09-12T15:57:29.796Z,848
2018-09-12T15:57:50.031Z,864
2018-09-12T15:58:10.313Z,892
2018-09-12T15:58:30.728Z,760
2018-09-12T15:58:50.900Z,760
2018-09-12T15:59:11.071Z,784
2018-09-12T15:59:31.231Z,696
2018-09-12T15:59:51.416Z,684
2018-09-12T16:00:11.587Z,728
2018-09-12T16:00:31.748Z,736
2018-09-12T16:00:51.921Z,624
2018-09-12T16:01:12.072Z,568
2018-09-12T16:01:32.228Z,732
2018-09-12T16:01:52.386Z,608
2018-09-12T16:02:12.538Z,568
2018-09-12T16:02:32.675Z,604
2018-09-12T16:02:52.949Z,616
2018-09-12T16:03:13.021Z,560
2018-09-12T16:03:33.173Z,520
2018-09-12T16:03:53.351Z,512
2018-09-12T16:04:13.496Z,492
2018-09-12T16:04:33.650Z,456
2018-09-12T16:04:53.835Z,448
2018-09-12T16:05:13.992Z,448
2018-09-12T16:05:34.167Z,440
2018-09-12T16:05:54.346Z,432
2018-09-12T16:06:14.499Z,440
2018-09-12T16:06:34.673Z,436
2018-09-12T16:06:54.858Z,440
2018-09-12T16:07:14.985Z,436
2018-09-12T16:07:35.170Z,432
2018-09-12T16:07:55.329Z,432
2018-09-12T16:08:15.473Z,424
2018-09-12T16:08:35.606Z,428
2018-09-12T16:08:57.311Z,424
2018-09-12T16:09:17.455Z,424
2018-09-12T16:09:37.612Z,420
2018-09-12T16:09:57.761Z,420
2018-09-12T16:10:17.934Z,420
2018-09-12T16:10:38.611Z,416
2018-09-12T16:10:58.799Z,412
2018-09-12T16:11:18.930Z,412
2018-09-12T16:11:39.089Z,412
2018-09-12T16:11:59.240Z,412
2018-09-12T16:12:19.380Z,408
2018-09-12T16:12:39.531Z,408
2018-09-12T16:12:59.718Z,408
2018-09-12T16:13:19.881Z,404
2018-09-12T16:13:40.612Z,404
2018-09-12T16:14:00.766Z,400
2018-09-12T16:14:20.933Z,404
2018-09-12T16:14:41.086Z,404
2018-09-12T16:15:01.233Z,400
2018-09-12T16:15:21.508Z,400
2018-09-12T16:15:41.764Z,396
2018-09-12T16:16:01.947Z,400
2018-09-12T16:16:22.111Z,396
2018-09-12T16:16:42.312Z,396
2018-09-12T16:17:02.530Z,396
2018-09-12T16:17:22.623Z,396
2018-09-12T16:17:42.770Z,392
2018-09-12T16:18:02.941Z,392
2018-09-12T16:18:23.706Z,388
2018-09-12T16:18:43.853Z,388
2018-09-12T16:19:04.024Z,388
2018-09-12T16:19:24.183Z,384
2018-09-12T16:19:44.326Z,384
2018-09-12T16:20:04.489Z,384
2018-09-12T16:20:24.647Z,384
2018-09-12T16:20:44.804Z,380
2018-09-12T16:21:04.972Z,380
2018-09-12T16:21:25.143Z,376
2018-09-12T16:21:45.299Z,380
2018-09-12T16:22:05.446Z,376
2018-09-12T16:22:25.623Z,376
2018-09-12T16:22:45.781Z,372
2018-09-12T16:23:05.989Z,376
2018-09-12T16:23:26.764Z,372
2018-09-12T16:23:46.909Z,372
2018-09-12T16:24:07.064Z,368
2018-09-12T16:24:28.611Z,368
2018-09-12T16:24:48.762Z,368
2018-09-12T16:25:08.945Z,364
2018-09-12T16:25:29.106Z,364
2018-09-12T16:25:49.238Z,360
2018-09-12T16:26:09.381Z,360
2018-09-12T16:26:29.541Z,360
2018-09-12T16:26:49.707Z,360
2018-09-12T16:27:09.866Z,356
2018-09-12T16:27:30.030Z,360
2018-09-12T16:27:50.193Z,356
2018-09-12T16:28:10.355Z,352
2018-09-12T16:28:30.508Z,352
2018-09-12T16:28:50.674Z,348
2018-09-12T16:29:10.831Z,352
2018-09-12T16:29:30.984Z,348
2018-09-12T16:29:51.142Z,348
2018-09-12T16:30:11.302Z,344
2018-09-12T16:30:31.465Z,344
2018-09-12T16:30:51.633Z,344
2018-09-12T16:31:11.795Z,344
2018-09-12T16:31:31.963Z,340
2018-09-12T16:31:52.118Z,340
2018-09-12T16:32:12.274Z,336
2018-09-12T16:32:32.454Z,336
2018-09-12T16:32:52.760Z,332
2018-09-12T16:33:12.881Z,336
2018-09-12T16:33:33.064Z,332
2018-09-12T16:33:53.219Z,332
2018-09-12T16:34:13.383Z,328
2018-09-12T16:34:33.537Z,328
2018-09-12T16:34:53.723Z,324
2018-09-12T16:35:13.870Z,324
2018-09-12T16:35:33.985Z,320
2018-09-12T16:35:54.147Z,320
2018-09-12T16:36:16.874Z,320
2018-09-12T16:36:37.024Z,316
2018-09-12T16:36:57.200Z,316
2018-09-12T16:37:17.358Z,312
2018-09-12T16:37:37.511Z,316
2018-09-12T16:37:57.663Z,312
2018-09-12T16:38:17.813Z,312
2018-09-12T16:38:37.971Z,308
2018-09-12T16:38:58.131Z,308
2018-09-12T16:39:18.304Z,308
2018-09-12T16:39:38.460Z,304
2018-09-12T16:39:58.617Z,300
2018-09-12T16:40:18.851Z,300
2018-09-12T16:40:38.939Z,300
2018-09-12T16:40:59.093Z,300
2018-09-12T16:41:19.258Z,300
2018-09-12T16:41:39.444Z,296
2018-09-12T16:41:59.615Z,296
2018-09-12T16:42:19.797Z,292
2018-09-12T16:42:39.965Z,292
2018-09-12T16:43:00.129Z,288
2018-09-12T16:43:20.272Z,288
2018-09-12T16:43:40.420Z,284
2018-09-12T16:44:00.613Z,284
2018-09-12T16:44:20.779Z,280
2018-09-12T16:44:40.937Z,280
2018-09-12T16:45:01.106Z,276
2018-09-12T16:45:21.291Z,276
2018-09-12T16:45:41.456Z,272
2018-09-12T16:46:01.582Z,276
2018-09-12T16:46:21.749Z,268
2018-09-12T16:46:41.921Z,272
2018-09-12T16:47:02.125Z,268
2018-09-12T16:47:22.259Z,268
2018-09-12T16:47:43.181Z,264
2018-09-12T16:48:03.344Z,260
2018-09-12T16:48:23.523Z,260
2018-09-12T16:48:43.687Z,256
2018-09-12T16:49:03.835Z,256
2018-09-12T16:49:24.001Z,256
2018-09-12T16:49:44.167Z,252
2018-09-12T16:50:04.331Z,252
2018-09-12T16:50:24.457Z,252
2018-09-12T16:50:44.677Z,248
2018-09-12T16:51:04.806Z,248
2018-09-12T16:51:25.005Z,240
2018-09-12T16:51:45.252Z,240
2018-09-12T16:52:05.336Z,240
2018-09-12T16:52:25.494Z,236
2018-09-12T16:52:45.664Z,236
2018-09-12T16:53:05.818Z,236
2018-09-12T16:53:25.967Z,232
2018-09-12T16:53:46.111Z,232
2018-09-12T16:54:06.280Z,228
2018-09-12T16:54:26.427Z,224
2018-09-12T16:54:46.574Z,224
2018-09-12T16:55:06.714Z,224
2018-09-12T16:55:26.866Z,220
2018-09-12T16:55:47.054Z,216
2018-09-12T16:56:07.213Z,216
2018-09-12T16:56:27.495Z,212
2018-09-12T16:56:47.651Z,212
2018-09-12T16:57:07.786Z,212
2018-09-12T16:57:27.943Z,204
2018-09-12T16:57:48.106Z,204
2018-09-12T16:58:08.271Z,204
2018-09-12T16:58:28.431Z,204
2018-09-12T16:58:48.580Z,196
2018-09-12T16:59:08.746Z,196
2018-09-12T16:59:28.892Z,196
2018-09-12T16:59:49.052Z,196
2018-09-12T17:00:09.227Z,188
2018-09-12T17:00:29.354Z,188
2018-09-12T17:00:49.526Z,188
2018-09-12T17:01:09.663Z,184
2018-09-12T17:01:29.822Z,180
2018-09-12T17:01:49.993Z,180
2018-09-12T17:02:10.164Z,176
2018-09-12T17:02:30.337Z,176
2018-09-12T17:02:50.623Z,176
2018-09-12T17:03:10.767Z,168
2018-09-12T17:03:30.926Z,168
2018-09-12T17:03:51.092Z,168
2018-09-12T17:04:11.238Z,164
2018-09-12T17:04:31.407Z,164
2018-09-12T17:04:51.564Z,160
2018-09-12T17:05:11.745Z,156
2018-09-12T17:05:31.912Z,156
2018-09-12T17:05:52.066Z,156
2018-09-12T17:06:12.229Z,152
2018-09-12T17:06:32.396Z,152
2018-09-12T17:06:53.211Z,148
2018-09-12T17:07:13.413Z,144
2018-09-12T17:07:33.573Z,144
2018-09-12T17:07:53.713Z,144
2018-09-12T17:08:13.859Z,140
2018-09-12T17:08:34.011Z,136
2018-09-12T17:08:54.190Z,136
2018-09-12T17:09:14.347Z,132
2018-09-12T17:09:34.507Z,132
2018-09-12T17:09:54.738Z,132
2018-09-12T17:10:14.889Z,124
2018-09-12T17:10:35.038Z,124
2018-09-12T17:10:55.192Z,124
2018-09-12T17:11:15.341Z,120
2018-09-12T17:11:35.492Z,120
2018-09-12T17:11:55.651Z,116
2018-09-12T17:12:15.818Z,112
2018-09-12T17:12:35.961Z,112
2018-09-12T17:12:56.113Z,112
2018-09-12T17:13:16.257Z,108
2018-09-12T17:13:36.406Z,108
2018-09-12T17:13:56.561Z,104
2018-09-12T17:14:16.775Z,100
2018-09-12T17:14:36.904Z,100
2018-09-12T17:14:57.077Z,96
2018-09-12T17:15:17.253Z,96
2018-09-12T17:15:37.412Z,96
2018-09-12T17:15:57.558Z,92
2018-09-12T17:16:17.737Z,88
2018-09-12T17:16:37.892Z,88
2018-09-12T17:16:58.052Z,88
2018-09-12T17:17:18.193Z,84
2018-09-12T17:17:38.391Z,84
2018-09-12T17:17:58.548Z,80
2018-09-12T17:18:18.699Z,80
2018-09-12T17:18:38.875Z,80
2018-09-12T17:18:59.039Z,76
2018-09-12T17:19:19.186Z,72
2018-09-12T17:19:39.336Z,72
2018-09-12T17:19:59.528Z,72
2018-09-12T17:20:20.273Z,68
2018-09-12T17:20:40.352Z,68
2018-09-12T17:21:00.511Z,64
2018-09-12T17:21:20.669Z,64
2018-09-12T17:21:40.844Z,64
2018-09-12T17:22:01.048Z,60
2018-09-12T17:22:21.736Z,60
2018-09-12T17:22:41.905Z,60
2018-09-12T17:23:02.771Z,56
2018-09-12T17:23:24.397Z,52
2018-09-12T17:23:44.558Z,52
2018-09-12T17:24:05.863Z,52
2018-09-12T17:24:26.022Z,48
2018-09-12T17:24:48.088Z,48
2018-09-12T17:25:08.246Z,48
2018-09-12T17:25:28.393Z,44
2018-09-12T17:25:48.564Z,44
2018-09-12T17:26:09.224Z,40
2018-09-12T17:26:29.377Z,40
2018-09-12T17:26:49.551Z,40
2018-09-12T17:27:09.705Z,36
2018-09-12T17:27:29.862Z,36
2018-09-12T17:27:50.003Z,36
2018-09-12T17:28:10.169Z,32
2018-09-12T17:28:30.298Z,32
2018-09-12T17:28:50.462Z,32
2018-09-12T17:29:10.598Z,32
2018-09-12T17:29:30.759Z,28
2018-09-12T17:29:50.914Z,28
2018-09-12T17:30:11.060Z,28
2018-09-12T17:30:31.219Z,28
2018-09-12T17:30:51.375Z,24
2018-09-12T17:31:11.541Z,28
2018-09-12T17:31:31.694Z,24
2018-09-12T17:31:51.860Z,24
2018-09-12T17:32:12.038Z,20
2018-09-12T17:32:32.431Z,20
2018-09-12T17:32:52.437Z,20
2018-09-12T17:33:12.606Z,16
2018-09-12T17:33:32.789Z,20
2018-09-12T17:33:53.599Z,16
2018-09-12T17:34:13.762Z,16
2018-09-12T17:34:34.179Z,16
2018-09-12T17:34:54.346Z,16
2018-09-12T17:35:14.509Z,12
2018-09-12T17:35:34.687Z,16
2018-09-12T17:35:54.835Z,12
2018-09-12T17:36:15.014Z,12
2018-09-12T17:36:35.176Z,12
2018-09-12T17:36:55.344Z,12
2018-09-12T17:37:15.499Z,8
2018-09-12T17:37:35.658Z,12
2018-09-12T17:37:55.984Z,12
2018-09-12T17:38:16.167Z,8
2018-09-12T17:38:36.337Z,8
2018-09-12T17:38:56.500Z,8
2018-09-12T17:39:16.672Z,8
2018-09-12T17:39:36.836Z,8
2018-09-12T17:39:57.022Z,8
2018-09-12T17:40:17.161Z,8
2018-09-12T17:40:37.330Z,8
2018-09-12T17:40:57.497Z,4
2018-09-12T17:41:17.676Z,4
2018-09-12T17:41:37.814Z,8
2018-09-12T17:41:57.973Z,4
2018-09-12T17:42:18.181Z,4
2018-09-12T17:42:38.337Z,4
2018-09-12T17:42:58.491Z,4
2018-09-12T17:43:18.617Z,4
2018-09-12T17:43:38.777Z,4
2018-09-12T17:43:58.947Z,4
2018-09-12T17:44:19.103Z,4
2018-09-12T17:44:39.254Z,4
2018-09-12T17:44:59.370Z,4
2018-09-12T17:45:19.523Z,4
2018-09-12T17:45:39.702Z,0
2018-09-12T17:45:59.868Z,0
2018-09-12T17:46:20.002Z,0
2018-09-12T17:46:40.159Z,4
2018-09-12T17:47:00.331Z,4
2018-09-12T17:47:20.576Z,4
2018-09-12T17:47:40.747Z,4
2018-09-12T17:48:00.914Z,4
2018-09-12T17:48:21.080Z,4
2018-09-12T17:48:41.266Z,0
2018-09-12T17:49:01.405Z,0
2018-09-12T17:49:21.573Z,0
2018-09-12T17:49:41.733Z,0
2018-09-12T17:50:01.855Z,0
2018-09-12T17:50:22.041Z,0
2018-09-12T17:50:42.168Z,0
2018-09-12T17:51:02.318Z,0
2018-09-12T17:51:22.477Z,0
2018-09-12T17:51:42.625Z,0
2018-09-12T17:52:02.778Z,0
2018-09-12T17:52:22.928Z,0
2018-09-12T17:52:43.089Z,0
2018-09-12T17:53:03.217Z,0
2018-09-12T17:53:23.362Z,0
2018-09-12T17:53:43.501Z,0
2018-09-12T17:54:03.647Z,0
2018-09-12T17:54:23.799Z,0
2018-09-12T17:54:43.953Z,0
2018-09-12T17:55:04.108Z,0
2018-09-12T17:55:24.281Z,0
2018-09-12T17:55:44.577Z,0
2018-09-12T17:56:04.696Z,0
2018-09-12T17:56:24.840Z,0
2018-09-12T17:56:44.966Z,0
2018-09-12T17:57:05.143Z,0
2018-09-12T17:57:25.304Z,0
2018-09-12T17:57:45.462Z,0
2018-09-12T17:58:05.597Z,0
2018-09-12T17:58:25.752Z,0
2018-09-12T17:58:45.923Z,0
2018-09-12T17:59:06.580Z,0
2018-09-12T17:59:27.126Z,0
2018-09-12T17:59:47.340Z,0
2018-09-12T18:00:07.527Z,0
2018-09-12T18:00:28.088Z,0
2018-09-12T18:00:48.335Z,0
2018-09-12T18:01:08.789Z,0
2018-09-12T18:01:29.182Z,0
2018-09-12T18:01:49.401Z,0
2018-09-12T18:02:09.550Z,0
2018-09-12T18:02:29.801Z,0
2018-09-12T18:02:49.979Z,0
2018-09-12T18:03:11.111Z,0
2018-09-12T18:03:31.311Z,0
2018-09-12T18:03:51.605Z,0
2018-09-12T18:04:11.786Z,0
2018-09-12T18:04:31.939Z,0
2018-09-12T18:04:52.117Z,0
2018-09-12T18:05:12.298Z,0
2018-09-12T18:05:32.651Z,0
2018-09-12T18:05:53.125Z,0
2018-09-12T18:06:13.525Z,0
2018-09-12T18:06:33.752Z,0
2018-09-12T18:06:54.111Z,0
2018-09-12T18:07:14.263Z,0
2018-09-12T18:07:34.539Z,0
2018-09-12T18:07:54.807Z,0
2018-09-12T18:08:15.049Z,0
2018-09-12T18:08:35.220Z,0
2018-09-12T18:08:55.625Z,0
2018-09-12T18:09:15.938Z,0
2018-09-12T18:09:36.398Z,0
2018-09-12T18:09:56.776Z,0
2018-09-12T18:10:17.706Z,0
2018-09-12T18:10:38.700Z,0
2018-09-12T18:10:59.002Z,0
2018-09-12T18:11:19.436Z,0
2018-09-12T18:11:39.918Z,0
2018-09-12T18:12:00.237Z,0
2018-09-12T18:12:20.514Z,0